sensor_id;sensor_type;location;lat;lon;timestamp;pressure;altitude;pressure_sealevel;temperature;humidity
61740;BME280;47645;45.288;12.038;2023-02-22T00:04:01;1019.6650526133334;;;9.8306640625;100
61740;BME280;47645;45.288;12.038;2023-02-22T00:14:02;1019.638870478745;;;9.8306640625;100
61740;BME280;47645;45.288;12.038;2023-02-22T00:24:16;1019.6009282974809;;;9.7033203125;100
61740;BME280;47645;45.288;12.038;2023-02-22T00:34:02;1019.5749975283003;;;9.626953125;100
61740;BME280;47645;45.288;12.038;2023-02-22T00:44:03;1019.5927620723502;;;9.784765625;100
61740;BME280;47645;45.288;12.038;2023-02-22T00:54:04;1019.542749430592;;;9.784765625;100
61740;BME280;47645;45.288;12.038;2023-02-22T01:04:04;1019.5095810503589;;;9.7185546875;100
61740;BME280;47645;45.288;12.038;2023-02-22T01:14:04;1019.4158115296362;;;9.6625;100
61740;BME280;47645;45.288;12.038;2023-02-22T01:24:05;1019.3704420334648;;;9.6625;100
61740;BME280;47645;45.288;12.038;2023-02-22T01:34:05;1019.2721793487265;;;9.7236328125;100
61740;BME280;47645;45.288;12.038;2023-02-22T01:44:27;1019.1564625231206;;;9.7134765625;100
61740;BME280;47645;45.288;12.038;2023-02-22T01:54:09;1019.0084504314651;;;9.6421875;100
61740;BME280;47645;45.288;12.038;2023-02-22T02:04:11;1018.9033551972113;;;9.5861328125;100
61740;BME280;47645;45.288;12.038;2023-02-22T02:14:09;1018.8347047899124;;;9.5962890625;100
61740;BME280;47645;45.288;12.038;2023-02-22T02:24:37;1018.7408768381557;;;9.657421875;100
61740;BME280;47645;45.288;12.038;2023-02-22T02:34:11;1018.6882419779812;;;9.7134765625;100
61740;BME280;47645;45.288;12.038;2023-02-22T02:44:11;1018.5810300777407;;;9.6166015625;100
61740;BME280;47645;45.288;12.038;2023-02-22T02:54:09;1018.4728916995779;;;9.4791015625;100
61740;BME280;47645;45.288;12.038;2023-02-22T03:04:20;1018.426945848316;;;9.6931640625;100
61740;BME280;47645;45.288;12.038;2023-02-22T03:14:14;1018.4041080242401;;;9.5146484375;100
61740;BME280;47645;45.288;12.038;2023-02-22T03:24:16;1018.3725924154172;;;9.336328125;100
61740;BME280;47645;45.288;12.038;2023-02-22T03:34:14;1018.3797309779452;;;9.4484375;100
61740;BME280;47645;45.288;12.038;2023-02-22T03:44:13;1018.3773820246065;;;9.4484375;100
61740;BME280;47645;45.288;12.038;2023-02-22T03:54:16;1018.3559412276875;;;9.4892578125;100
61740;BME280;47645;45.288;12.038;2023-02-22T04:04:12;1018.3599711874355;;;9.560546875;100
61740;BME280;47645;45.288;12.038;2023-02-22T04:14:12;1018.4098502843923;;;9.4689453125;100
61740;BME280;47645;45.288;12.038;2023-02-22T04:24:13;1018.4306756057337;;;9.423046875;100
61740;BME280;47645;45.288;12.038;2023-02-22T04:34:13;1018.3601248802509;;;9.53515625;100
61740;BME280;47645;45.288;12.038;2023-02-22T04:44:14;1018.3518462087166;;;9.5044921875;100
61740;BME280;47645;45.288;12.038;2023-02-22T04:54:15;1018.3164244345448;;;9.4892578125;100
61740;BME280;47645;45.288;12.038;2023-02-22T05:04:14;1018.343209387988;;;9.550390625;100
61740;BME280;47645;45.288;12.038;2023-02-22T05:14:15;1018.3862030812406;;;9.4994140625;100
61740;BME280;47645;45.288;12.038;2023-02-22T05:24:15;1018.3901969294832;;;9.443359375;100
61740;BME280;47645;45.288;12.038;2023-02-22T05:34:16;1018.3815752787726;;;9.4943359375;100
61740;BME280;47645;45.288;12.038;2023-02-22T05:44:16;1018.3995532648254;;;9.4892578125;100
61740;BME280;47645;45.288;12.038;2023-02-22T05:54:17;1018.3801593817807;;;9.4076171875;100
61740;BME280;47645;45.288;12.038;2023-02-22T06:04:17;1018.4752376368068;;;9.316015625;100
61740;BME280;47645;45.288;12.038;2023-02-22T06:14:18;1018.5304299904067;;;9.6216796875;100
61740;BME280;47645;45.288;12.038;2023-02-22T06:24:19;1018.472321008308;;;9.6115234375;100
61740;BME280;47645;45.288;12.038;2023-02-22T06:34:20;1018.6421813549198;;;9.7287109375;100
61740;BME280;47645;45.288;12.038;2023-02-22T06:44:19;1018.5961268226857;;;9.6421875;100
61740;BME280;47645;45.288;12.038;2023-02-22T06:54:20;1018.6800428257385;;;9.6625;100
61740;BME280;47645;45.288;12.038;2023-02-22T07:04:21;1018.7484769309399;;;9.6931640625;100
61740;BME280;47645;45.288;12.038;2023-02-22T07:14:21;1018.8226058399027;;;9.8255859375;100
61740;BME280;47645;45.288;12.038;2023-02-22T07:24:22;1018.8167208527311;;;9.5912109375;100
61740;BME280;47645;45.288;12.038;2023-02-22T07:34:22;1018.7957417772109;;;9.67265625;100
61740;BME280;47645;45.288;12.038;2023-02-22T07:44:22;1018.7871044876892;;;9.7134765625;100
61740;BME280;47645;45.288;12.038;2023-02-22T07:54:23;1018.725300612461;;;9.84609375;100
61740;BME280;47645;45.288;12.038;2023-02-22T08:04:25;1018.6830617382006;;;9.9173828125;100
61740;BME280;47645;45.288;12.038;2023-02-22T08:14:24;1018.6826785426138;;;10.2537109375;100
61740;BME280;47645;45.288;12.038;2023-02-22T08:24:25;1018.6737003641595;;;10.406640625;100
61740;BME280;47645;45.288;12.038;2023-02-22T08:34:26;1018.6076155240854;;;10.48828125;100
61740;BME280;47645;45.288;12.038;2023-02-22T08:44:26;1018.7066940304284;;;10.8041015625;100
61740;BME280;47645;45.288;12.038;2023-02-22T08:54:26;1018.7363089412859;;;11.252734375;96.51873527268484
61740;BME280;47645;45.288;12.038;2023-02-22T09:04:27;1018.7311198963074;;;11.4361328125;94.42810849774371
61740;BME280;47645;45.288;12.038;2023-02-22T09:14:27;1018.7127246027486;;;11.5533203125;94.06175713389683
61740;BME280;47645;45.288;12.038;2023-02-22T09:24:28;1018.6699216060002;;;11.818359375;92.27898420054112
61740;BME280;47645;45.288;12.038;2023-02-22T09:34:29;1018.6571210401605;;;11.8642578125;90.89888941595126
61740;BME280;47645;45.288;12.038;2023-02-22T09:44:34;1018.591996343055;;;12.1599609375;90.10544298159525
61740;BME280;47645;45.288;12.038;2023-02-22T09:54:33;1018.5596300911635;;;12.9703125;86.05489932004946
61740;BME280;47645;45.288;12.038;2023-02-22T10:04:38;1018.5678975778168;;;12.9294921875;84.57510321115966
61740;BME280;47645;45.288;12.038;2023-02-22T10:14:43;1018.5000931903721;;;13.2658203125;82.48057759746607
61740;BME280;47645;45.288;12.038;2023-02-22T10:24:37;1018.5106971960043;;;13.306640625;82.38981468295667
61740;BME280;47645;45.288;12.038;2023-02-22T10:34:40;1018.4391432215665;;;13.8724609375;80.31103656758278
61740;BME280;47645;45.288;12.038;2023-02-22T10:44:32;1018.372767820685;;;13.744921875;80.03117274836983
61740;BME280;47645;45.288;12.038;2023-02-22T10:54:36;1018.22239743689;;;13.7806640625;80.81549338338661
61740;BME280;47645;45.288;12.038;2023-02-22T11:04:45;1018.0428802661802;;;14.0662109375;79.98773798466411
61740;BME280;47645;45.288;12.038;2023-02-22T11:14:33;1017.8889052573238;;;14.764453125;77.41933292749583
61740;BME280;47645;45.288;12.038;2023-02-22T11:24:43;1017.6861203434206;;;15.2384765625;75.40010241601468
61740;BME280;47645;45.288;12.038;2023-02-22T11:34:37;1017.5900284402068;;;15.8908203125;73.22743034622387
61740;BME280;47645;45.288;12.038;2023-02-22T11:44:35;1017.5017000822585;;;15.6666015625;72.4670550269642
61740;BME280;47645;45.288;12.038;2023-02-22T11:54:46;1017.3694110318617;;;16.1966796875;68.68595628423205
61740;BME280;47645;45.288;12.038;2023-02-22T12:04:48;1017.304331067817;;;15.95703125;68.78190847447283
61740;BME280;47645;45.288;12.038;2023-02-22T12:14:43;1017.2209695312687;;;16.2986328125;68.15722211296847
61740;BME280;47645;45.288;12.038;2023-02-22T12:24:41;1017.2076632608338;;;15.7634765625;65.46597592922953
61740;BME280;47645;45.288;12.038;2023-02-22T12:34:46;1017.1746756264857;;;16.1916015625;68.6965403184927
61740;BME280;47645;45.288;12.038;2023-02-22T12:44:42;1017.1007559850286;;;16.34453125;64.01601089822384
61740;BME280;47645;45.288;12.038;2023-02-22T12:54:46;1017.0387078880266;;;16.4259765625;64.65902196651636
61740;BME280;47645;45.288;12.038;2023-02-22T13:04:40;1016.995363145495;;;16.5482421875;67.51845191905082
61740;BME280;47645;45.288;12.038;2023-02-22T13:14:50;1016.9088425041134;;;16.2986328125;64.94529580730496
61740;BME280;47645;45.288;12.038;2023-02-22T13:24:51;1016.8461271372814;;;16.2986328125;67.4227409432101
61740;BME280;47645;45.288;12.038;2023-02-22T13:35:06;1016.7859465514031;;;16.2578125;68.75773724599163
61740;BME280;47645;45.288;12.038;2023-02-22T13:45:38;1016.6753945897419;;;16.26796875;66.0447201717161
61740;BME280;47645;45.288;12.038;2023-02-22T13:54:48;1016.6604824418291;;;16.0232421875;71.51498235145769
61740;BME280;47645;45.288;12.038;2023-02-22T14:04:45;1016.6539078770595;;;15.7634765625;71.88462840140556
61740;BME280;47645;45.288;12.038;2023-02-22T14:15:07;1016.6197937469686;;;15.610546875;74.79614325727741
61740;BME280;47645;45.288;12.038;2023-02-22T14:24:47;1016.568462545893;;;15.421875;75.76444571667729
61740;BME280;47645;45.288;12.038;2023-02-22T14:34:51;1016.5765099918394;;;15.212890625;76.88616214745501
61740;BME280;47645;45.288;12.038;2023-02-22T14:44:54;1016.5882399056202;;;15.019140625;77.63979657261102
61740;BME280;47645;45.288;12.038;2023-02-22T14:54:55;1016.508125810569;;;14.7796875;78.00975912909917
61740;BME280;47645;45.288;12.038;2023-02-22T15:04:51;1016.4282719355721;;;14.6369140625;80.01328778412673
61740;BME280;47645;45.288;12.038;2023-02-22T15:15:09;1016.4187962044052;;;14.4025390625;80.77534306264279
61740;BME280;47645;45.288;12.038;2023-02-22T15:24:57;1016.3351918270017;;;14.2087890625;82.10510950570475
61740;BME280;47645;45.288;12.038;2023-02-22T15:34:51;1016.2816597762096;;;14.03046875;82.97606641659097
61740;BME280;47645;45.288;12.038;2023-02-22T15:44:53;1016.2455682465594;;;13.821484375;83.53021498480582
61740;BME280;47645;45.288;12.038;2023-02-22T15:54:52;1016.2446031056294;;;13.5921875;85.12940526893007
61740;BME280;47645;45.288;12.038;2023-02-22T16:04:57;1016.1783213804225;;;13.423828125;86.0499007445962
61740;BME280;47645;45.288;12.038;2023-02-22T16:14:54;1016.1101181315076;;;13.3015625;86.67643174274615
61740;BME280;47645;45.288;12.038;2023-02-22T16:25:11;1016.0784207036937;;;13.1384765625;87.46667000108175
61740;BME280;47645;45.288;12.038;2023-02-22T16:34:55;1016.1234697346514;;;12.990625;88.15652126314826
61740;BME280;47645;45.288;12.038;2023-02-22T16:44:55;1016.0949069612966;;;12.55234375;91.00796875937306
61740;BME280;47645;45.288;12.038;2023-02-22T16:54:56;1016.0615121286484;;;12.4708984375;90.82539325877511
61740;BME280;47645;45.288;12.038;2023-02-22T17:04:56;1016.1050620857219;;;12.312890625;91.16800126766935
61740;BME280;47645;45.288;12.038;2023-02-22T17:14:57;1016.2271197677926;;;12.098828125;92.54093531896406
61740;BME280;47645;45.288;12.038;2023-02-22T17:24:57;1016.3057219042864;;;11.9611328125;93.28288893405161
61740;BME280;47645;45.288;12.038;2023-02-22T17:34:58;1016.3682059814331;;;11.91015625;93.04304089007155
61740;BME280;47645;45.288;12.038;2023-02-22T17:44:58;1016.4164807056474;;;11.803125;93.44167876421238
61740;BME280;47645;45.288;12.038;2023-02-22T17:54:59;1016.490966044031;;;11.7318359375;93.69115648279848
61740;BME280;47645;45.288;12.038;2023-02-22T18:05:00;1016.4682951516953;;;11.609375;94.42526216499724
61740;BME280;47645;45.288;12.038;2023-02-22T18:15:00;1016.4138406219649;;;11.4515625;95.61638533384017
61740;BME280;47645;45.288;12.038;2023-02-22T18:25:01;1016.4103350542323;;;11.3953125;95.60903848698997
61740;BME280;47645;45.288;12.038;2023-02-22T18:35:01;1016.3036638495797;;;11.36484375;94.9196208702092
61740;BME280;47645;45.288;12.038;2023-02-22T18:45:06;1016.2709942940294;;;11.28828125;96.06999993439315
61740;BME280;47645;45.288;12.038;2023-02-22T18:55:03;1016.2096973932961;;;11.176171875;96.23695842326647
61740;BME280;47645;45.288;12.038;2023-02-22T19:05:05;1016.1753761987744;;;11.1609375;95.84992363983353
61740;BME280;47645;45.288;12.038;2023-02-22T19:10:04;1016.1753245934026;;;11.1099609375;95.94205076858034
61740;BME280;47645;45.288;12.038;2023-02-22T19:20:06;1016.1937607774859;;;11.0080078125;97.25554553706124
61740;BME280;47645;45.288;12.038;2023-02-22T19:30:06;1016.2408780731209;;;10.946875;97.31772839791829
61740;BME280;47645;45.288;12.038;2023-02-22T19:40:09;1016.2402293893377;;;10.8755859375;98.72580198437944
61740;BME280;47645;45.288;12.038;2023-02-22T19:50:07;1016.1767467355552;;;10.93671875;100
61740;BME280;47645;45.288;12.038;2023-02-22T20:00:15;1016.2778040224593;;;10.834765625;100
61740;BME280;47645;45.288;12.038;2023-02-22T20:10:08;1016.2902961462313;;;10.7125;99.17992816679408
61740;BME280;47645;45.288;12.038;2023-02-22T20:20:09;1016.3412482668315;;;10.7888671875;100
61740;BME280;47645;45.288;12.038;2023-02-22T20:30:10;1016.3982084057953;;;10.6970703125;100
61740;BME280;47645;45.288;12.038;2023-02-22T20:40:09;1016.3950779163539;;;10.74296875;100
61740;BME280;47645;45.288;12.038;2023-02-22T20:50:09;1016.308644106367;;;10.62578125;99.7304957211797
61740;BME280;47645;45.288;12.038;2023-02-22T21:00:11;1016.387466492848;;;10.6970703125;100
61740;BME280;47645;45.288;12.038;2023-02-22T21:10:10;1016.1835844814015;;;10.74296875;100
61740;BME280;47645;45.288;12.038;2023-02-22T21:20:13;1016.199158270179;;;10.50859375;100
61740;BME280;47645;45.288;12.038;2023-02-22T21:30:15;1016.2393169094903;;;10.421875;100
61740;BME280;47645;45.288;12.038;2023-02-22T21:40:14;1016.1162436486735;;;10.5697265625;100
61740;BME280;47645;45.288;12.038;2023-02-22T21:50:13;1016.0086367970429;;;10.52890625;100
61740;BME280;47645;45.288;12.038;2023-02-22T22:00:17;1015.8820143653604;;;10.4728515625;100
61740;BME280;47645;45.288;12.038;2023-02-22T22:10:18;1015.8597533244476;;;10.48828125;100
61740;BME280;47645;45.288;12.038;2023-02-22T22:20:15;1015.8223566740721;;;10.4423828125;100
61740;BME280;47645;45.288;12.038;2023-02-22T22:30:16;1015.7560496814035;;;10.426953125;100
61740;BME280;47645;45.288;12.038;2023-02-22T22:40:16;1015.7177343784009;;;10.2283203125;100
61740;BME280;47645;45.288;12.038;2023-02-22T22:50:16;1015.6869691191159;;;10.284375;100
61740;BME280;47645;45.288;12.038;2023-02-22T23:00:27;1015.7318877608708;;;10.202734375;100
61740;BME280;47645;45.288;12.038;2023-02-22T23:10:16;1015.6871173119358;;;10.090625;100
61740;BME280;47645;45.288;12.038;2023-02-22T23:20:16;1015.7073864473485;;;10.1416015625;100
61740;BME280;47645;45.288;12.038;2023-02-22T23:30:18;1015.7239946496742;;;10.06015625;100
61740;BME280;47645;45.288;12.038;2023-02-22T23:40:18;1015.6808128314999;;;10.0703125;100
61740;BME280;47645;45.288;12.038;2023-02-22T23:50:20;1015.5506024367282;;;9.978515625;100
